This is the latest recevied weather packets stored in our database for station/object F5GJJ-13. If no packets are shown the sender has not sent any weather packets the latest 10 day(s).
| Time | Temp. | Humidity | Pressure | Rain* | Wind** | Luminosity | Snow |
|---|---|---|---|---|---|---|---|
| 1777404313 | 16.11° C | 81% | 1015.6 hPa | 0 mm | - | - | - |
| 1777403354 | 16.67° C | 81% | 1015.6 hPa | 0 mm | - | - | - |
| 1777402559 | 16.67° C | 81% | 1015.6 hPa | 0 mm | - | - | - |
| 1777402394 | 16.67° C | 81% | 1015.6 hPa | 0 mm | - | - | - |
| 1777401433 | 16.67° C | 82% | 1016.6 hPa | 2.03 mm | - | - | - |
| 1777400759 | 17.22° C | 80% | 1016.6 hPa | 2.03 mm | - | - | - |
| 1777400473 | 17.22° C | 80% | 1015.6 hPa | 2.03 mm | - | - | - |
| 1777399514 | 16.67° C | 81% | 1015.6 hPa | 2.03 mm | - | - | - |
| 1777398958 | 16.67° C | 81% | 1015.6 hPa | 2.03 mm | - | - | - |
| 1777398553 | 17.22° C | 80% | 1015.6 hPa | 3.05 mm | - | - | - |
| 1777397594 | 17.22° C | 80% | 1014.6 hPa | 1.02 mm | - | - | - |
| 1777397159 | 16.67° C | 81% | 1014.6 hPa | 2.29 mm | - | - | - |
| 1777396634 | 17.22° C | 79% | 1014.6 hPa | 2.29 mm | - | - | - |
| 1777395673 | 17.22° C | 79% | 1014.6 hPa | 2.29 mm | - | - | - |
| 1777395358 | 17.22° C | 79% | 1014.6 hPa | 2.29 mm | - | - | - |
| 1777394713 | 17.22° C | 78% | 1014.6 hPa | 1.27 mm | - | - | - |
| 1777393753 | 17.22° C | 79% | 1014.6 hPa | 0 mm | - | - | - |
| 1777393559 | 17.22° C | 79% | 1014.6 hPa | 0 mm | - | - | - |
| 1777392794 | 17.78° C | 78% | 1014.6 hPa | 0 mm | - | - | - |
| 1777391833 | 18.33° C | 74% | 1015.6 hPa | 0 mm | - | - | - |
| 1777391757 | 18.33° C | 74% | 1015.6 hPa | 0 mm | - | - | - |
| 1777391564 | 18.33° C | 73% | 1014.9 hPa | 0 mm | - | - | - |
| 1777390605 | 18.89° C | 72% | 1014.6 hPa | 0 mm | - | - | - |
| 1777389646 | 20° C | 67% | 1014.6 hPa | 0 mm | - | - | - |
| 1777388686 | 20.56° C | 63% | 1014.6 hPa | 0 mm | - | - | - |
* Rain latest hour (hover to see other rain measurements)
** Current wind speed in m/s (hover to see current wind gust speed)